Time;durP1;ratioP1;P1;durP2;ratioP2;P2;SDS_P1;SDS_P2;PMS_P1;PMS_P2;Temp;Humidity;BMP_temperature;BMP_pressure;BME280_temperature;BME280_humidity;BME280_pressure;Samples;Min_cycle;Max_cycle;Signal;HPM_P1;HPM_P2
2021/05/12 00:01:54;;;;;;;0.35;0.20;;;23.20;41.50;;;;;;5058216;28;20380;-79
2021/05/12 00:04:20;;;;;;;0.50;0.20;;;23.20;41.60;;;;;;5058198;28;20527;-78
2021/05/12 00:06:46;;;;;;;0.30;0.10;;;23.20;41.50;;;;;;5057910;28;20400;-79
2021/05/12 00:09:11;;;;;;;0.20;0.20;;;23.20;41.50;;;;;;5057753;28;20392;-79
2021/05/12 00:11:37;;;;;;;0.33;0.20;;;23.20;41.60;;;;;;5058055;28;20381;-80
2021/05/12 00:14:03;;;;;;;0.30;0.20;;;23.20;41.60;;;;;;5057912;28;20413;-79
2021/05/12 00:16:29;;;;;;;0.25;0.20;;;23.20;41.60;;;;;;5058123;28;20823;-80
2021/05/12 00:18:54;;;;;;;0.47;0.20;;;23.20;41.60;;;;;;5057984;28;20417;-79
2021/05/12 00:21:35;;;;;;;0.30;0.30;;;23.10;41.60;;;;;;5057782;28;20417;-80
2021/05/12 00:24:00;;;;;;;0.28;0.20;;;23.20;41.70;;;;;;5057985;28;20382;-80
2021/05/12 00:26:39;;;;;;;0.40;0.20;;;23.10;41.60;;;;;;5057938;28;20889;-79
2021/05/12 00:29:07;;;;;;;0.47;0.40;;;23.10;41.60;;;;;;5057823;28;20401;-80
2021/05/12 00:31:33;;;;;;;0.55;0.20;;;23.10;41.60;;;;;;5040069;28;20791;-81
2021/05/12 00:33:59;;;;;;;0.60;0.20;;;23.10;41.60;;;;;;5039862;28;20397;-77
2021/05/12 00:36:26;;;;;;;0.40;0.20;;;23.10;41.60;;;;;;5055034;28;20388;-78
2021/05/12 00:38:52;;;;;;;0.20;0.20;;;23.10;41.60;;;;;;5054533;28;20885;-76
2021/05/12 00:41:17;;;;;;;0.50;0.20;;;23.10;41.60;;;;;;5054061;28;20393;-78
2021/05/12 00:43:43;;;;;;;0.40;0.20;;;23.10;41.60;;;;;;5054484;28;20393;-78
2021/05/12 00:46:09;;;;;;;0.60;0.13;;;23.10;41.70;;;;;;5054816;28;20451;-79
2021/05/12 00:48:36;;;;;;;0.40;0.20;;;23.10;41.60;;;;;;5054614;28;20389;-79
2021/05/12 00:51:02;;;;;;;0.57;0.20;;;23.10;41.60;;;;;;5054429;28;20397;-73
2021/05/12 00:53:28;;;;;;;0.40;0.10;;;23.00;41.60;;;;;;5054275;28;20397;-79
2021/05/12 00:55:53;;;;;;;0.35;0.20;;;23.00;41.60;;;;;;5054444;28;20400;-79
2021/05/12 00:58:19;;;;;;;0.70;0.20;;;23.00;41.60;;;;;;5054342;28;20413;-79
2021/05/12 01:00:45;;;;;;;0.60;0.30;;;23.00;41.50;;;;;;5054322;28;20718;-79
2021/05/12 01:03:11;;;;;;;0.40;0.20;;;23.00;41.50;;;;;;5053818;28;20468;-73
2021/05/12 01:05:36;;;;;;;0.50;0.20;;;23.00;41.50;;;;;;5054042;28;20393;-76
2021/05/12 01:08:04;;;;;;;0.23;0.10;;;23.00;41.50;;;;;;5054307;28;20392;-79
2021/05/12 01:10:32;;;;;;;0.40;0.20;;;23.00;41.50;;;;;;5054049;28;20880;-69
2021/05/12 01:12:58;;;;;;;0.50;0.20;;;23.00;41.60;;;;;;5036396;28;20479;-79
2021/05/12 01:15:25;;;;;;;1.48;0.30;;;23.00;41.60;;;;;;5035959;28;20475;-79
2021/05/12 01:17:50;;;;;;;0.20;0.15;;;22.90;41.50;;;;;;5053878;28;20897;-80
2021/05/12 01:20:16;;;;;;;0.65;0.20;;;22.90;41.60;;;;;;5053863;28;20416;-80
2021/05/12 01:22:42;;;;;;;0.33;0.13;;;23.00;41.50;;;;;;5053731;28;20381;-79
2021/05/12 01:25:09;;;;;;;0.40;0.20;;;23.00;41.50;;;;;;5053706;28;20427;-80
2021/05/12 01:27:36;;;;;;;0.45;0.17;;;22.90;41.40;;;;;;5045970;28;20396;-80
2021/05/12 01:30:03;;;;;;;0.43;0.20;;;22.90;41.50;;;;;;5054067;28;20519;-80
2021/05/12 01:32:35;;;;;;;0.77;0.20;;;22.90;41.40;;;;;;5053888;28;20392;-80
2021/05/12 01:35:09;;;;;;;0.40;0.20;;;22.90;41.40;;;;;;5053795;28;20458;-80
2021/05/12 01:37:35;;;;;;;0.28;0.10;;;22.90;41.40;;;;;;5035951;28;20408;-80
2021/05/12 01:40:05;;;;;;;0.30;0.10;;;22.90;41.50;;;;;;5053565;28;20417;-80
2021/05/12 01:42:30;;;;;;;0.20;0.20;;;22.90;41.40;;;;;;5053611;28;20385;-76
2021/05/12 01:45:04;;;;;;;0.40;0.20;;;22.90;41.50;;;;;;5053698;28;20385;-80
2021/05/12 01:47:29;;;;;;;0.40;0.20;;;22.90;41.50;;;;;;5035259;28;20971;-79
2021/05/12 01:50:02;;;;;;;0.40;0.10;;;22.90;41.40;;;;;;5053588;28;20480;-80
2021/05/12 01:52:27;;;;;;;0.20;0.20;;;22.80;41.30;;;;;;5053563;28;20460;-80
2021/05/12 01:54:53;;;;;;;0.40;0.20;;;22.80;41.30;;;;;;5053486;28;20859;-80
2021/05/12 01:57:19;;;;;;;0.32;0.20;;;22.80;41.30;;;;;;5053069;28;20742;-80
2021/05/12 01:59:44;;;;;;;0.50;0.20;;;22.90;41.40;;;;;;5035825;28;20983;-80
2021/05/12 02:02:10;;;;;;;0.10;0.10;;;22.90;41.40;;;;;;5053573;28;20385;-80
2021/05/12 02:04:39;;;;;;;0.20;0.10;;;22.80;41.40;;;;;;5053234;28;20400;-80
2021/05/12 02:07:04;;;;;;;0.20;0.20;;;22.80;41.40;;;;;;5053042;28;20389;-81
2021/05/12 02:09:37;;;;;;;0.80;0.20;;;22.80;41.40;;;;;;5052750;28;20497;-77
2021/05/12 02:12:03;;;;;;;0.52;0.20;;;22.80;41.30;;;;;;5044236;28;20470;-81
2021/05/12 02:14:29;;;;;;;0.43;0.10;;;22.80;41.90;;;;;;5033323;28;20414;-80
2021/05/12 02:16:55;;;;;;;0.20;0.17;;;22.80;41.40;;;;;;5032773;28;20383;-79
2021/05/12 02:19:21;;;;;;;0.40;0.20;;;22.80;41.30;;;;;;5032518;28;20775;-79
2021/05/12 02:21:46;;;;;;;0.30;0.20;;;22.80;41.30;;;;;;5015134;28;20478;-80
2021/05/12 02:24:12;;;;;;;0.40;0.20;;;22.70;41.20;;;;;;5032884;28;20470;-80
2021/05/12 02:26:37;;;;;;;0.30;0.10;;;22.70;41.30;;;;;;5033043;28;20530;-79
2021/05/12 02:29:03;;;;;;;0.20;0.10;;;22.80;41.30;;;;;;5033056;28;20402;-81
2021/05/12 02:31:29;;;;;;;0.40;0.17;;;22.70;41.30;;;;;;5032634;28;20398;-80
2021/05/12 02:33:54;;;;;;;0.30;0.10;;;22.70;41.30;;;;;;5032860;28;20482;-80
2021/05/12 02:36:20;;;;;;;0.20;0.10;;;22.70;41.30;;;;;;5032768;28;20787;-78
2021/05/12 02:38:46;;;;;;;0.40;0.10;;;22.70;41.30;;;;;;5032856;28;20465;-80
2021/05/12 02:41:12;;;;;;;0.50;0.20;;;22.70;41.20;;;;;;5032550;28;20877;-79
2021/05/12 02:43:38;;;;;;;0.30;0.10;;;22.70;41.20;;;;;;5032612;28;20387;-79
2021/05/12 02:46:03;;;;;;;0.40;0.20;;;22.70;41.30;;;;;;5032592;28;20391;-79
2021/05/12 02:48:29;;;;;;;0.40;0.10;;;22.70;41.20;;;;;;5033001;28;20398;-80
2021/05/12 02:50:55;;;;;;;0.43;0.10;;;22.70;41.10;;;;;;5032675;28;20478;-80
2021/05/12 02:53:22;;;;;;;0.20;0.10;;;22.70;41.20;;;;;;5031951;28;20482;-79
2021/05/12 02:55:48;;;;;;;0.22;0.10;;;22.70;41.20;;;;;;5032739;28;20398;-80
2021/05/12 02:58:14;;;;;;;0.17;0.10;;;22.70;41.20;;;;;;5032317;28;20474;-80
2021/05/12 03:00:41;;;;;;;0.30;0.10;;;22.70;41.20;;;;;;5031921;28;20490;-80
2021/05/12 03:03:08;;;;;;;0.10;0.10;;;22.70;41.20;;;;;;5032578;28;20875;-80
2021/05/12 03:05:34;;;;;;;0.38;0.20;;;22.70;41.20;;;;;;5031980;28;20875;-80
2021/05/12 03:08:00;;;;;;;0.40;0.10;;;22.70;41.20;;;;;;5014535;28;20466;-80
2021/05/12 03:10:27;;;;;;;0.43;0.30;;;22.70;41.10;;;;;;5032495;28;20383;-80
2021/05/12 03:12:53;;;;;;;0.35;0.10;;;22.70;41.20;;;;;;5032259;28;20407;-80
2021/05/12 03:15:22;;;;;;;0.40;0.10;;;22.70;41.20;;;;;;5031918;28;20415;-78
2021/05/12 03:17:50;;;;;;;0.40;0.30;;;22.60;41.10;;;;;;5014664;28;20776;-81
2021/05/12 03:20:16;;;;;;;0.50;0.10;;;22.60;41.10;;;;;;5031985;28;20419;-80
2021/05/12 03:22:42;;;;;;;0.38;0.17;;;22.60;41.10;;;;;;5032098;28;20383;-80
2021/05/12 03:25:08;;;;;;;0.60;0.10;;;22.60;41.10;;;;;;5032332;28;20970;-80
2021/05/12 03:27:34;;;;;;;0.20;0.10;;;22.60;41.00;;;;;;5031401;28;20414;-79
2021/05/12 03:29:59;;;;;;;0.30;0.20;;;22.60;41.00;;;;;;5031871;28;20443;-79
2021/05/12 03:32:25;;;;;;;0.10;0.10;;;22.60;41.00;;;;;;5031921;28;20385;-79
2021/05/12 03:34:51;;;;;;;0.20;0.10;;;22.60;40.90;;;;;;5032131;28;20426;-80
2021/05/12 03:37:17;;;;;;;0.30;0.10;;;22.60;41.00;;;;;;5031568;28;20795;-77
2021/05/12 03:39:42;;;;;;;0.40;0.20;;;22.60;40.90;;;;;;5031284;28;20474;-78
2021/05/12 03:42:09;;;;;;;0.30;0.10;;;22.50;40.90;;;;;;5031941;28;20387;-80
2021/05/12 03:44:34;;;;;;;0.25;0.10;;;22.60;41.00;;;;;;5031999;28;20409;-80
2021/05/12 03:47:00;;;;;;;0.38;0.10;;;22.60;41.00;;;;;;5031679;28;20486;-72
2021/05/12 03:49:26;;;;;;;0.13;0.10;;;22.60;40.90;;;;;;5013570;28;20811;-80
2021/05/12 03:51:51;;;;;;;0.10;0.10;;;22.50;40.80;;;;;;5014338;28;20380;-80
2021/05/12 03:54:17;;;;;;;0.10;0.10;;;22.50;40.70;;;;;;5014270;28;20394;-80
2021/05/12 03:56:43;;;;;;;0.22;0.10;;;22.50;40.70;;;;;;5031781;28;20383;-80
2021/05/12 03:59:08;;;;;;;0.63;0.20;;;22.50;40.70;;;;;;5031534;28;20423;-78
2021/05/12 04:01:34;;;;;;;0.17;0.10;;;22.50;40.70;;;;;;5030915;28;20390;-79
2021/05/12 04:04:05;;;;;;;0.37;0.10;;;22.50;40.70;;;;;;5014008;28;20736;-80
2021/05/12 04:06:31;;;;;;;0.10;0.10;;;22.50;40.60;;;;;;5031348;28;20797;-78
2021/05/12 04:08:56;;;;;;;0.10;0.10;;;22.50;40.60;;;;;;5031608;28;20399;-79
2021/05/12 04:11:22;;;;;;;0.20;0.10;;;22.40;40.40;;;;;;5032961;28;20387;-78
2021/05/12 04:13:48;;;;;;;0.20;0.10;;;22.40;41.00;;;;;;5035040;28;20426;-77
2021/05/12 04:16:13;;;;;;;0.13;0.10;;;22.50;40.50;;;;;;5035296;28;20796;-79
2021/05/12 04:18:39;;;;;;;0.50;0.10;;;22.40;40.40;;;;;;5034862;28;20941;-70
2021/05/12 04:21:04;;;;;;;0.10;0.10;;;22.40;40.30;;;;;;5034975;28;20395;-78
2021/05/12 04:23:30;;;;;;;0.33;0.10;;;22.40;40.40;;;;;;5033946;28;20429;-64
2021/05/12 04:25:56;;;;;;;0.20;0.10;;;22.40;40.40;;;;;;5034570;28;20441;-67
2021/05/12 04:28:21;;;;;;;0.10;0.10;;;22.40;40.50;;;;;;5034553;28;20379;-65
2021/05/12 04:30:47;;;;;;;0.10;0.10;;;22.40;40.40;;;;;;5033221;28;20442;-74
2021/05/12 04:33:13;;;;;;;0.30;0.10;;;22.40;40.50;;;;;;5034446;28;20390;-76
2021/05/12 04:35:38;;;;;;;0.10;0.10;;;22.40;40.60;;;;;;5016416;28;20411;-71
2021/05/12 04:38:04;;;;;;;0.10;0.10;;;22.40;40.60;;;;;;5034642;28;20387;-69
2021/05/12 04:40:29;;;;;;;0.25;0.10;;;22.40;40.60;;;;;;5016879;28;20398;-77
2021/05/12 04:42:55;;;;;;;0.17;0.10;;;22.40;40.50;;;;;;5034656;28;20486;-73
2021/05/12 04:45:21;;;;;;;0.17;0.10;;;22.30;40.30;;;;;;5034372;28;20476;-79
2021/05/12 04:47:57;;;;;;;0.20;0.10;;;22.40;40.40;;;;;;5046467;28;20896;-75
2021/05/12 04:50:33;;;;;;;0.38;0.10;;;22.30;40.40;;;;;;5045036;28;20871;-70
2021/05/12 04:52:59;;;;;;;0.10;0.10;;;22.30;40.30;;;;;;5024574;28;20413;-77
2021/05/12 04:55:25;;;;;;;0.25;0.20;;;22.30;40.30;;;;;;5050881;28;20381;-72
2021/05/12 04:57:51;;;;;;;0.45;0.10;;;22.30;40.30;;;;;;5038250;28;20415;-65
2021/05/12 05:00:20;;;;;;;0.40;0.10;;;22.30;40.50;;;;;;5034077;28;20506;-65
2021/05/12 05:02:46;;;;;;;0.50;0.10;;;22.30;40.50;;;;;;5033724;28;20493;-65
2021/05/12 05:05:15;;;;;;;1.20;0.20;;;22.30;40.60;;;;;;5033426;28;20391;-74
2021/05/12 05:07:40;;;;;;;0.75;0.17;;;22.30;40.70;;;;;;5030900;28;20414;-66
2021/05/12 05:10:07;;;;;;;2.30;0.20;;;22.30;40.80;;;;;;5032987;28;20476;-66
2021/05/12 05:12:33;;;;;;;1.30;0.20;;;22.30;41.10;;;;;;5032679;28;20410;-65
2021/05/12 05:14:58;;;;;;;0.93;0.10;;;22.30;41.10;;;;;;5015903;28;20406;-66
2021/05/12 05:17:26;;;;;;;1.02;0.10;;;22.30;41.20;;;;;;5033634;28;20379;-71
2021/05/12 05:19:52;;;;;;;1.00;0.10;;;22.20;41.20;;;;;;5033432;28;20415;-65
2021/05/12 05:22:19;;;;;;;0.20;0.10;;;22.20;41.10;;;;;;5032751;28;20878;-70
2021/05/12 05:24:45;;;;;;;1.15;0.10;;;22.20;41.20;;;;;;5015422;28;20811;-69
2021/05/12 05:27:10;;;;;;;0.53;0.13;;;22.20;41.20;;;;;;5033562;28;20387;-67
2021/05/12 05:29:36;;;;;;;0.73;0.10;;;22.20;41.20;;;;;;5032751;28;20387;-65
2021/05/12 05:32:03;;;;;;;0.50;0.15;;;22.20;40.80;;;;;;5033359;28;20390;-70
2021/05/12 05:34:28;;;;;;;1.40;0.20;;;22.20;40.80;;;;;;5033282;28;20410;-67
2021/05/12 05:36:54;;;;;;;2.00;0.20;;;22.10;40.50;;;;;;5033191;28;20387;-65
2021/05/12 05:39:20;;;;;;;1.25;0.10;;;22.10;40.80;;;;;;5015518;28;20461;-71
2021/05/12 05:41:45;;;;;;;0.57;0.17;;;22.10;41.40;;;;;;5032878;28;20402;-71
2021/05/12 05:44:11;;;;;;;1.13;0.10;;;22.20;41.40;;;;;;5032550;28;20410;-73
2021/05/12 05:46:37;;;;;;;0.93;0.30;;;22.10;41.50;;;;;;5033053;28;20851;-72
2021/05/12 05:49:03;;;;;;;0.30;0.10;;;22.10;41.20;;;;;;5033145;28;20802;-73
2021/05/12 05:51:29;;;;;;;0.90;0.17;;;22.10;41.30;;;;;;5032596;28;20459;-68
2021/05/12 05:53:55;;;;;;;1.73;0.20;;;22.10;41.20;;;;;;5033016;28;20859;-72
2021/05/12 05:56:21;;;;;;;1.17;0.10;;;22.10;41.30;;;;;;5032866;28;20420;-72
2021/05/12 05:58:46;;;;;;;0.40;0.10;;;22.10;41.30;;;;;;5032872;28;20411;-75
2021/05/12 06:01:12;;;;;;;0.83;0.10;;;22.10;41.80;;;;;;5034176;28;20395;-70
2021/05/12 06:03:37;;;;;;;2.38;0.22;;;22.10;42.10;;;;;;5032177;28;20415;-69
2021/05/12 06:06:03;;;;;;;1.70;0.20;;;22.10;42.30;;;;;;5032647;28;20423;-74
2021/05/12 06:08:29;;;;;;;1.02;0.10;;;22.10;42.80;;;;;;5032364;28;20399;-76
2021/05/12 06:10:55;;;;;;;1.27;0.10;;;22.10;42.10;;;;;;5032736;28;20395;-70
2021/05/12 06:13:20;;;;;;;1.60;0.20;;;22.10;42.60;;;;;;5050123;28;20769;-67
2021/05/12 06:15:46;;;;;;;1.00;0.30;;;22.10;41.80;;;;;;5052132;28;20916;-72
2021/05/12 06:18:11;;;;;;;0.68;0.13;;;22.10;41.90;;;;;;5051972;28;20392;-71
2021/05/12 06:20:37;;;;;;;1.30;0.10;;;22.10;41.70;;;;;;5052280;28;20743;-75
2021/05/12 06:23:04;;;;;;;1.98;0.20;;;22.10;41.70;;;;;;5052170;28;20385;-68
2021/05/12 06:25:29;;;;;;;0.82;0.20;;;22.00;41.60;;;;;;5051350;28;20405;-65
2021/05/12 06:27:56;;;;;;;0.52;0.40;;;22.00;41.60;;;;;;5051552;28;20753;-74
2021/05/12 06:30:22;;;;;;;0.90;0.10;;;22.00;42.10;;;;;;5052089;28;20750;-69
2021/05/12 06:32:50;;;;;;;2.10;0.28;;;22.00;41.60;;;;;;5052284;28;20486;-70
2021/05/12 06:35:16;;;;;;;0.60;0.10;;;22.00;41.90;;;;;;5051230;28;20762;-73
2021/05/12 06:37:42;;;;;;;0.30;0.20;;;22.00;41.80;;;;;;5051959;28;20408;-75
2021/05/12 06:40:08;;;;;;;0.98;0.20;;;22.00;41.60;;;;;;5052135;28;20980;-68
2021/05/12 06:42:34;;;;;;;0.20;0.10;;;22.00;41.60;;;;;;5052028;28;20381;-74
2021/05/12 06:44:59;;;;;;;0.70;0.10;;;22.00;41.60;;;;;;5052055;28;20421;-69
2021/05/12 06:47:25;;;;;;;0.83;0.20;;;22.00;41.70;;;;;;5033865;28;20388;-69
2021/05/12 06:49:51;;;;;;;0.80;0.40;;;22.00;41.80;;;;;;5051739;28;20758;-75
2021/05/12 06:52:17;;;;;;;1.70;0.30;;;22.00;41.70;;;;;;5036261;28;20389;-69
2021/05/12 06:54:42;;;;;;;1.98;0.20;;;22.00;41.70;;;;;;5034527;28;20743;-78
2021/05/12 06:57:08;;;;;;;1.17;0.10;;;22.00;42.20;;;;;;5033963;28;20405;-76
2021/05/12 06:59:33;;;;;;;0.87;0.20;;;22.10;42.00;;;;;;5050685;28;20459;-78
2021/05/12 07:01:59;;;;;;;0.77;0.30;;;22.20;41.90;;;;;;5051576;28;20385;-78
2021/05/12 07:04:25;;;;;;;0.82;0.20;;;22.30;41.40;;;;;;5051665;28;20478;-77
2021/05/12 07:06:50;;;;;;;0.73;0.13;;;22.30;41.70;;;;;;5034035;28;20489;-79
2021/05/12 07:09:16;;;;;;;1.00;0.10;;;22.20;41.50;;;;;;5034067;28;20443;-80
2021/05/12 07:11:41;;;;;;;1.00;0.10;;;22.20;42.10;;;;;;5027241;28;20399;-79
2021/05/12 07:14:08;;;;;;;2.22;0.20;;;22.20;41.70;;;;;;5031924;28;20411;-71
2021/05/12 07:16:34;;;;;;;1.23;0.10;;;22.30;41.50;;;;;;5031762;28;20446;-80
2021/05/12 07:19:00;;;;;;;0.80;0.10;;;22.20;41.20;;;;;;5031986;28;20502;-74
2021/05/12 07:21:25;;;;;;;0.97;0.10;;;22.20;41.20;;;;;;5031904;28;20466;-66
2021/05/12 07:23:52;;;;;;;1.13;0.10;;;22.20;41.40;;;;;;5031574;28;20395;-79
2021/05/12 07:26:19;;;;;;;0.43;0.20;;;22.10;41.30;;;;;;5031653;28;20475;-79
2021/05/12 07:28:45;;;;;;;1.08;0.30;;;22.10;41.40;;;;;;5031126;28;20396;-78
2021/05/12 07:31:12;;;;;;;1.00;0.20;;;22.20;41.40;;;;;;5031619;28;20422;-74
2021/05/12 07:33:37;;;;;;;1.58;0.20;;;22.30;41.10;;;;;;5030975;28;20395;-76
2021/05/12 07:36:03;;;;;;;1.02;0.25;;;22.30;41.20;;;;;;5031213;28;20540;-77
2021/05/12 07:38:29;;;;;;;1.90;0.20;;;22.30;41.00;;;;;;5031526;28;20529;-77
2021/05/12 07:40:58;;;;;;;1.30;0.23;;;22.20;41.20;;;;;;5031131;28;20490;-75
2021/05/12 07:43:23;;;;;;;0.88;0.20;;;22.20;41.20;;;;;;5031182;28;20379;-75
2021/05/12 07:45:49;;;;;;;2.20;0.27;;;22.30;40.90;;;;;;5031410;28;20403;-74
2021/05/12 07:48:15;;;;;;;1.10;0.30;;;22.30;41.00;;;;;;5035345;28;20389;-72
2021/05/12 07:50:41;;;;;;;1.25;0.20;;;22.30;41.00;;;;;;5035516;28;20405;-73
2021/05/12 07:53:08;;;;;;;1.50;0.50;;;22.30;40.80;;;;;;5035307;28;20470;-76
2021/05/12 07:55:35;;;;;;;1.23;0.40;;;22.30;40.90;;;;;;5035065;28;21038;-79
2021/05/12 07:58:01;;;;;;;0.82;0.28;;;22.20;41.20;;;;;;5034831;28;20754;-75
2021/05/12 08:00:28;;;;;;;1.13;0.30;;;22.30;41.00;;;;;;5034773;28;20422;-77
2021/05/12 08:02:53;;;;;;;1.85;0.28;;;22.30;41.00;;;;;;5035340;28;20426;-78
2021/05/12 08:05:19;;;;;;;1.20;0.30;;;22.40;40.70;;;;;;5035062;28;20824;-72
2021/05/12 08:07:44;;;;;;;1.40;0.30;;;22.30;40.90;;;;;;5034280;28;20375;-74
2021/05/12 08:10:10;;;;;;;2.03;0.30;;;22.30;40.80;;;;;;5017329;28;20489;-75
2021/05/12 08:12:36;;;;;;;1.65;0.40;;;22.30;41.10;;;;;;5034518;28;20398;-79
2021/05/12 08:15:03;;;;;;;2.07;0.30;;;22.30;40.80;;;;;;5034595;28;20399;-74
2021/05/12 08:17:28;;;;;;;2.40;0.38;;;22.40;41.00;;;;;;5034767;28;20422;-74
2021/05/12 08:19:56;;;;;;;2.23;0.40;;;22.40;41.40;;;;;;5034717;28;20459;-78
2021/05/12 08:22:22;;;;;;;2.28;0.60;;;22.50;42.00;;;;;;5035149;28;20395;-79
2021/05/12 08:24:48;;;;;;;1.73;0.50;;;22.50;43.30;;;;;;5016827;28;20403;-66
2021/05/12 08:27:13;;;;;;;2.10;0.43;;;22.40;42.60;;;;;;5034779;28;20395;-69
2021/05/12 08:29:43;;;;;;;1.60;0.50;;;22.50;42.80;;;;;;5033838;28;20395;-64
2021/05/12 08:32:14;;;;;;;2.10;0.60;;;22.50;43.60;;;;;;5017025;28;20747;-77
2021/05/12 08:34:42;;;;;;;3.05;0.60;;;22.60;43.70;;;;;;5016347;28;20406;-69
2021/05/12 08:37:08;;;;;;;1.67;0.40;;;22.60;42.70;;;;;;5034727;28;20401;-73
2021/05/12 08:39:34;;;;;;;2.13;0.70;;;22.50;42.90;;;;;;5034041;28;20411;-78
2021/05/12 08:42:01;;;;;;;3.15;0.80;;;22.50;43.00;;;;;;5034078;28;20457;-77
2021/05/12 08:44:30;;;;;;;2.58;0.80;;;22.50;42.20;;;;;;5034428;28;20871;-77
2021/05/12 08:46:56;;;;;;;1.80;0.60;;;22.50;42.10;;;;;;5034122;28;20462;-78
2021/05/12 08:49:22;;;;;;;2.47;0.82;;;22.60;42.20;;;;;;5034416;28;20387;-78
2021/05/12 08:51:48;;;;;;;1.80;0.60;;;22.50;41.80;;;;;;5033704;28;20441;-76
2021/05/12 08:54:14;;;;;;;2.63;0.60;;;22.50;42.00;;;;;;5034178;28;20383;-73
2021/05/12 08:56:40;;;;;;;2.33;0.68;;;22.40;41.90;;;;;;5033295;28;20391;-77
2021/05/12 08:59:06;;;;;;;2.40;0.73;;;22.40;42.10;;;;;;5033220;28;20402;-75
2021/05/12 09:01:33;;;;;;;1.38;0.60;;;22.50;41.60;;;;;;5033427;28;20410;-71
2021/05/12 09:04:01;;;;;;;2.50;0.60;;;22.50;41.90;;;;;;5033558;28;20395;-75
2021/05/12 09:06:27;;;;;;;2.97;0.60;;;22.50;41.40;;;;;;5033033;28;20386;-74
2021/05/12 09:08:53;;;;;;;3.10;0.63;;;22.50;41.60;;;;;;5033467;28;20383;-74
2021/05/12 09:11:19;;;;;;;3.20;0.60;;;22.40;41.70;;;;;;5033107;28;20482;-72
2021/05/12 09:13:47;;;;;;;3.20;0.70;;;22.40;41.50;;;;;;5032994;28;20561;-74
2021/05/12 09:16:34;;;;;;;3.85;0.60;;;22.50;41.40;;;;;;5033477;28;20383;-70
2021/05/12 09:19:11;;;;;;;2.17;0.47;;;22.50;42.30;;;;;;5033237;28;20417;-71
2021/05/12 09:21:48;;;;;;;1.60;0.40;;;22.50;41.10;;;;;;5033138;28;20402;-73
2021/05/12 09:24:20;;;;;;;2.10;0.67;;;22.50;41.60;;;;;;5033599;28;20394;-73
2021/05/12 09:26:47;;;;;;;3.05;0.70;;;22.50;42.10;;;;;;5033350;28;20390;-73
2021/05/12 09:29:22;;;;;;;5.23;0.90;;;22.50;43.60;;;;;;5033319;28;20434;-71
2021/05/12 09:31:49;;;;;;;4.97;1.10;;;22.50;44.00;;;;;;5032445;28;20421;-72
2021/05/12 09:34:14;;;;;;;3.90;0.70;;;22.60;44.10;;;;;;5033530;28;20399;-73
2021/05/12 09:36:40;;;;;;;21.17;6.87;;;22.60;42.30;;;;;;5033085;28;20396;-72
2021/05/12 09:39:14;;;;;;;81.93;22.10;;;22.60;42.40;;;;;;5033149;28;20411;-73
2021/05/12 09:41:40;;;;;;;27.70;7.30;;;22.60;43.00;;;;;;5032948;28;20490;-73
2021/05/12 09:44:07;;;;;;;21.65;5.72;;;22.60;43.90;;;;;;5033153;28;21005;-73
2021/05/12 09:46:34;;;;;;;16.40;4.45;;;22.60;44.20;;;;;;5033189;28;20402;-73
2021/05/12 09:49:00;;;;;;;18.52;4.85;;;22.70;44.00;;;;;;5033027;28;20392;-74
2021/05/12 09:51:33;;;;;;;16.87;4.80;;;22.70;43.50;;;;;;5032841;28;20409;-73
2021/05/12 09:54:03;;;;;;;15.63;4.80;;;22.70;43.80;;;;;;5032730;28;20387;-73
2021/05/12 09:56:37;;;;;;;15.40;3.88;;;22.70;43.20;;;;;;5032815;28;20874;-73
2021/05/12 09:59:08;;;;;;;20.23;4.75;;;22.60;43.50;;;;;;5015115;28;20410;-72
2021/05/12 10:01:44;;;;;;;14.15;3.97;;;22.60;44.60;;;;;;5032467;28;20399;-63
2021/05/12 10:04:35;;;;;;;12.80;3.80;;;22.70;44.70;;;;;;5032647;28;20418;-73
2021/05/12 10:07:22;;;;;;;12.27;3.22;;;22.70;43.80;;;;;;5032942;28;20394;-73
2021/05/12 10:09:56;;;;;;;12.35;3.92;;;22.70;43.70;;;;;;5013371;28;20403;-72
2021/05/12 10:12:26;;;;;;;13.70;3.30;;;22.70;45.50;;;;;;5031789;28;20461;-73
2021/05/12 10:14:56;;;;;;;11.73;3.45;;;22.70;45.80;;;;;;5032554;28;20450;-73
2021/05/12 10:17:23;;;;;;;14.35;3.05;;;22.70;45.80;;;;;;5032273;28;20391;-73
2021/05/12 10:19:50;;;;;;;8.65;2.58;;;22.70;45.70;;;;;;5031872;28;20419;-73
2021/05/12 10:22:17;;;;;;;7.18;2.33;;;22.70;44.40;;;;;;5014731;28;20390;-73
2021/05/12 10:24:44;;;;;;;9.57;2.45;;;22.70;44.20;;;;;;5032367;28;20374;-73
2021/05/12 10:27:16;;;;;;;11.70;2.70;;;22.60;43.80;;;;;;5032267;28;20430;-74
2021/05/12 10:29:48;;;;;;;10.47;2.50;;;22.60;45.80;;;;;;5032948;28;20395;-73
2021/05/12 10:32:31;;;;;;;8.38;2.35;;;22.70;46.20;;;;;;5032050;28;20399;-72
2021/05/12 10:35:03;;;;;;;7.47;2.33;;;22.70;45.80;;;;;;5032018;28;20504;-73
2021/05/12 10:37:31;;;;;;;7.60;1.88;;;22.70;44.50;;;;;;5032011;28;20399;-74
2021/05/12 10:40:02;;;;;;;9.45;2.03;;;22.70;45.60;;;;;;5031533;28;20438;-74
2021/05/12 10:43:01;;;;;;;8.15;2.03;;;22.80;46.80;;;;;;5032030;28;20387;-72
2021/05/12 10:45:37;;;;;;;6.68;1.77;;;22.80;46.70;;;;;;5031942;28;20931;-66
2021/05/12 10:48:04;;;;;;;5.82;1.45;;;22.90;46.40;;;;;;5031416;28;20886;-72
2021/05/12 10:50:49;;;;;;;7.15;1.60;;;23.00;45.40;;;;;;5031580;28;20414;-73
2021/05/12 10:53:26;;;;;;;7.00;1.58;;;23.00;45.90;;;;;;5031746;28;20383;-74
2021/05/12 10:56:00;;;;;;;6.20;1.83;;;22.90;46.20;;;;;;5031354;28;20427;-74
2021/05/12 10:58:37;;;;;;;5.50;1.45;;;23.00;46.30;;;;;;5031803;28;20405;-73
2021/05/12 11:01:08;;;;;;;5.40;1.27;;;23.00;46.20;;;;;;5031616;28;20902;-72
2021/05/12 11:03:52;;;;;;;5.03;1.05;;;23.00;45.90;;;;;;5031311;28;20391;-74
2021/05/12 11:06:38;;;;;;;6.40;1.40;;;23.10;45.10;;;;;;5032487;28;20402;-70
2021/05/12 11:09:08;;;;;;;4.10;1.30;;;23.00;45.80;;;;;;5013659;28;20756;-74
2021/05/12 11:11:49;;;;;;;5.97;1.50;;;23.00;45.90;;;;;;5034907;28;20398;-75
2021/05/12 11:14:24;;;;;;;6.35;1.30;;;23.00;45.80;;;;;;5051518;28;20450;-75
2021/05/12 11:17:09;;;;;;;6.07;1.25;;;23.00;46.20;;;;;;5039785;28;20423;-75
2021/05/12 11:22:30;;;;;;;4.25;1.20;;;23.10;44.60;;;;;;5030715;28;20408;-75
2021/05/12 11:25:01;;;;;;;3.67;1.10;;;23.10;44.90;;;;;;5031417;28;20437;-74
2021/05/12 11:32:34;;;;;;;3.92;1.10;;;23.10;44.90;;;;;;5032878;28;20387;-72
2021/05/12 11:35:05;;;;;;;5.70;1.10;;;23.20;44.70;;;;;;5031221;28;20430;-74
2021/05/12 11:37:34;;;;;;;4.13;1.10;;;23.10;44.10;;;;;;5031169;28;20387;-73
2021/05/12 11:40:00;;;;;;;4.68;1.10;;;23.10;44.30;;;;;;5030446;28;20786;-73
2021/05/12 11:42:30;;;;;;;5.32;1.13;;;23.00;44.50;;;;;;5030918;28;20393;-68
2021/05/12 11:45:09;;;;;;;4.57;0.95;;;23.00;44.60;;;;;;5030660;28;20466;-73
2021/05/12 11:47:43;;;;;;;3.58;1.00;;;23.00;45.00;;;;;;5030787;28;20397;-73
2021/05/12 11:50:30;;;;;;;3.75;1.02;;;23.10;44.70;;;;;;5038465;28;20883;-72
2021/05/12 11:52:57;;;;;;;5.55;1.20;;;23.00;43.90;;;;;;5030479;28;20493;-73
2021/05/12 11:55:41;;;;;;;3.35;0.88;;;23.00;44.00;;;;;;5031220;28;20422;-72
2021/05/12 11:58:11;;;;;;;3.70;0.70;;;22.90;43.90;;;;;;5030985;28;20466;-72
2021/05/12 12:00:38;;;;;;;5.07;1.08;;;22.90;43.90;;;;;;5030892;28;20454;-74
2021/05/12 12:03:07;;;;;;;3.53;0.80;;;22.90;44.90;;;;;;5030947;28;20422;-73
2021/05/12 12:05:44;;;;;;;3.45;1.00;;;23.00;44.40;;;;;;5030697;28;20393;-73
2021/05/12 12:08:15;;;;;;;2.50;0.75;;;22.90;43.70;;;;;;5013047;28;20398;-72
2021/05/12 12:10:42;;;;;;;2.30;0.70;;;22.90;43.50;;;;;;5012776;28;20486;-73
2021/05/12 12:13:14;;;;;;;3.30;1.10;;;22.90;43.80;;;;;;5047091;28;20913;-72
2021/05/12 12:15:48;;;;;;;3.80;1.10;;;22.90;44.40;;;;;;5050645;28;20480;-72
2021/05/12 12:18:26;;;;;;;4.88;1.08;;;22.90;44.70;;;;;;5050519;28;20382;-74
2021/05/12 12:20:51;;;;;;;2.92;0.70;;;22.90;44.00;;;;;;5032447;28;20766;-74
2021/05/12 12:23:25;;;;;;;3.08;0.68;;;22.90;43.40;;;;;;5050768;28;20386;-73
2021/05/12 12:26:10;;;;;;;4.00;0.80;;;22.90;43.40;;;;;;5049980;28;20776;-71
2021/05/12 12:28:36;;;;;;;4.28;1.20;;;22.90;43.40;;;;;;5050671;28;20785;-74
2021/05/12 12:31:01;;;;;;;3.10;0.90;;;22.90;43.70;;;;;;5050676;28;20397;-75
2021/05/12 12:33:27;;;;;;;7.03;1.43;;;22.90;44.50;;;;;;5053706;28;20469;-74
2021/05/12 12:36:08;;;;;;;3.40;0.98;;;22.90;44.30;;;;;;5053803;28;20425;-76
2021/05/12 12:38:36;;;;;;;3.30;1.10;;;22.90;43.30;;;;;;5053505;28;20389;-73
2021/05/12 12:41:02;;;;;;;5.83;1.10;;;22.90;43.50;;;;;;5053837;28;20968;-64
2021/05/12 12:43:38;;;;;;;4.13;1.00;;;22.90;43.80;;;;;;5054105;28;20473;-59
2021/05/12 12:46:05;;;;;;;6.28;1.10;;;22.80;43.50;;;;;;5053318;28;20396;-62
2021/05/12 12:48:30;;;;;;;5.97;1.25;;;22.90;44.00;;;;;;5053860;28;20918;-60
2021/05/12 12:50:56;;;;;;;7.20;1.60;;;23.00;43.90;;;;;;5053825;28;20480;-74
2021/05/12 12:53:22;;;;;;;4.50;1.30;;;23.00;43.50;;;;;;5053924;28;20397;-74
2021/05/12 12:55:48;;;;;;;5.55;1.48;;;22.90;43.50;;;;;;5053510;28;20881;-73
2021/05/12 12:58:14;;;;;;;7.30;1.27;;;22.90;43.40;;;;;;5053570;28;20389;-73